Главная страница
METAR-TAF:

METAR-TAF

Аэропорты :

Вардё, Норвегия

широта: 70-21N, долгота: 031-03E, высота над уровнем моря: 12 м

Текущие метеонаблюдения

Эта сводка был подготовлена 29 минут назад, в 10:50 UTC
Ветер 14 Узел от северный
Температура 2°C
Влажность 75%
Давление 1015 hPa
Видимость 10 км и более
небольшая облачность на высоте 700 фута
Отдельные облака на высоте 1300 фута
Рассеянная облачность на высоте 3400 фута
ливни в окрестностях

METAR: ENSS 261050Z 36014KT 9999 VCSH FEW007 SCT013 BKN034 02/M02 Q1015 RMK WIND 500FT 02016G28KT

Время: 13:19 (11:19 UTC)


TAF: отсутствует

Метеонаблюдения и прогнозы для более 4000 аэропортов (сводки METAR и TAF).

Имеющиеся станции представлены на карте желтыми и красными точками.

Чтобы увидеть название станции, наведите на нее мышь.

Затем щелкните, чтобы увидеть метеонаблюдения и метеопрогнозы.

Управление картой: чтобы увеличить масштаб, щелкните зеленые кнопки с черным крестиком; чтобы уменьшить масштаб, щелкните зеленую кнопку с тире; для просмотра соседних карт щелкайте зеленые стрелки.


METAR-TAF: